Time;durP1;ratioP1;P1;durP2;ratioP2;P2;SDS_P1;SDS_P2;PMS_P1;PMS_P2;Temp;Humidity;BMP_temperature;BMP_pressure;BME280_temperature;BME280_humidity;BME280_pressure;Samples;Min_cycle;Max_cycle;Signal;HPM_P1;HPM_P2
2022/05/09 00:00:35;;;;;;;11.70;2.80;;;;;;;;;;5005524;28;20074;-78
2022/05/09 00:03:01;;;;;;;11.05;2.50;;;;;;;;;;5008166;28;20144;-79
2022/05/09 00:05:28;;;;;;;7.00;2.88;;;;;;;;;;5016247;28;20058;-79
2022/05/09 00:07:55;;;;;;;6.63;2.28;;;;;;;;;;5010116;28;20162;-78
2022/05/09 00:10:23;;;;;;;10.90;2.85;;;;;;;;;;5019717;28;20120;-76
2022/05/09 00:12:49;;;;;;;8.20;2.47;;;;;;;;;;5008417;28;20054;-77
2022/05/09 00:15:16;;;;;;;10.07;2.35;;;;;;;;;;5023415;28;20539;-78
2022/05/09 00:17:45;;;;;;;10.20;2.80;;;;;;;;;;5015539;28;20529;-78
2022/05/09 00:20:12;;;;;;;13.90;2.55;;;;;;;;;;5001045;28;20061;-76
2022/05/09 00:22:43;;;;;;;8.48;2.50;;;;;;;;;;5000384;28;20047;-79
2022/05/09 00:25:09;;;;;;;11.75;3.05;;;;;;;;;;5014683;28;20077;-77
2022/05/09 00:27:35;;;;;;;13.55;2.90;;;;;;;;;;5000427;28;20047;-79
2022/05/09 00:30:02;;;;;;;11.75;2.75;;;;;;;;;;5010712;28;20055;-80
2022/05/09 00:32:29;;;;;;;13.38;2.45;;;;;;;;;;5007337;28;20141;-78
2022/05/09 00:35:02;;;;;;;10.07;2.70;;;;;;;;;;5004247;28;20585;-79
2022/05/09 00:37:28;;;;;;;11.80;2.45;;;;;;;;;;5013363;28;20141;-79
2022/05/09 00:39:54;;;;;;;12.38;3.05;;;;;;;;;;5007722;28;20069;-79
2022/05/09 00:42:21;;;;;;;11.25;2.55;;;;;;;;;;5012962;28;20452;-79
2022/05/09 00:44:47;;;;;;;6.22;2.40;;;;;;;;;;5021834;28;20235;-80
2022/05/09 00:47:13;;;;;;;16.73;2.90;;;;;;;;;;5018469;28;20117;-77
2022/05/09 00:49:45;;;;;;;12.20;2.83;;;;;;;;;;5006735;28;20081;-77
2022/05/09 00:52:18;;;;;;;8.82;2.70;;;;;;;;;;5005895;28;20060;-79
2022/05/09 00:54:49;;;;;;;13.02;3.28;;;;;;;;;;5012183;28;20054;-79
2022/05/09 00:57:20;;;;;;;12.90;2.38;;;;;;;;;;5005128;28;20058;-79
2022/05/09 00:59:47;;;;;;;9.07;2.60;;;;;;;;;;5010579;28;20057;-78
2022/05/09 01:02:15;;;;;;;10.40;3.28;;;;;;;;;;5002448;28;20634;-80
2022/05/09 01:04:49;;;;;;;13.02;2.90;;;;;;;;;;5009447;28;20051;-77
2022/05/09 01:07:16;;;;;;;10.27;3.20;;;;;;;;;;5011529;28;20071;-80
2022/05/09 01:09:42;;;;;;;11.90;2.80;;;;;;;;;;5010339;28;20057;-79
2022/05/09 01:12:10;;;;;;;11.48;3.00;;;;;;;;;;5002130;28;20065;-79
2022/05/09 01:14:39;;;;;;;11.57;2.53;;;;;;;;;;5006146;28;20641;-79
2022/05/09 01:17:06;;;;;;;10.55;2.38;;;;;;;;;;5016691;28;20060;-78
2022/05/09 01:19:36;;;;;;;10.75;3.05;;;;;;;;;;5013111;28;20099;-79
2022/05/09 01:22:15;;;;;;;10.18;3.00;;;;;;;;;;5010698;28;20489;-80
2022/05/09 01:24:42;;;;;;;12.70;3.20;;;;;;;;;;5004841;28;20141;-79
2022/05/09 01:27:08;;;;;;;10.77;2.95;;;;;;;;;;5002147;28;20054;-79
2022/05/09 01:29:56;;;;;;;12.85;3.08;;;;;;;;;;5018056;28;20068;-78
2022/05/09 01:32:45;;;;;;;12.95;3.50;;;;;;;;;;5009588;28;20066;-78
2022/05/09 01:35:14;;;;;;;10.45;3.00;;;;;;;;;;5029271;28;20114;-77
2022/05/09 01:37:43;;;;;;;11.23;3.13;;;;;;;;;;5001707;28;20058;-80
2022/05/09 01:40:10;;;;;;;8.38;3.13;;;;;;;;;;5005168;28;20153;-80
2022/05/09 01:42:39;;;;;;;13.18;2.88;;;;;;;;;;5020042;28;20974;-77
2022/05/09 01:45:07;;;;;;;14.45;3.05;;;;;;;;;;5004589;28;20060;-79
2022/05/09 01:50:18;;;;;;;15.23;3.03;;;;;;;;;;5004859;28;20058;-79
2022/05/09 01:52:44;;;;;;;7.45;2.75;;;;;;;;;;5006928;28;20061;-80
2022/05/09 01:55:10;;;;;;;13.95;3.88;;;;;;;;;;4998817;28;20054;-79
2022/05/09 01:57:37;;;;;;;9.27;3.20;;;;;;;;;;4997871;28;20066;-77
2022/05/09 02:00:05;;;;;;;10.73;2.95;;;;;;;;;;5011602;28;20058;-76
2022/05/09 02:02:32;;;;;;;13.55;3.20;;;;;;;;;;5004501;28;20086;-79
2022/05/09 02:04:58;;;;;;;11.07;2.70;;;;;;;;;;5035600;28;20206;-79
2022/05/09 02:07:26;;;;;;;13.77;3.22;;;;;;;;;;4999364;28;20141;-78
2022/05/09 02:09:53;;;;;;;13.00;3.75;;;;;;;;;;5010945;28;20145;-79
2022/05/09 02:12:19;;;;;;;14.95;3.15;;;;;;;;;;5004730;28;20050;-78
2022/05/09 02:14:47;;;;;;;9.30;3.10;;;;;;;;;;5009944;28;20153;-79
2022/05/09 02:17:15;;;;;;;10.70;2.80;;;;;;;;;;5006815;28;20142;-78
2022/05/09 02:19:41;;;;;;;8.55;2.80;;;;;;;;;;5005287;28;20059;-78
2022/05/09 02:22:11;;;;;;;12.43;3.38;;;;;;;;;;5005683;28;20058;-81
2022/05/09 02:24:41;;;;;;;15.93;3.97;;;;;;;;;;5011376;28;20060;-78
2022/05/09 02:27:08;;;;;;;8.57;2.95;;;;;;;;;;5027509;28;20062;-78
2022/05/09 02:29:35;;;;;;;13.10;3.10;;;;;;;;;;5005985;28;20149;-79
2022/05/09 02:32:02;;;;;;;9.75;3.38;;;;;;;;;;5002382;28;20990;-77
2022/05/09 02:34:29;;;;;;;15.25;3.35;;;;;;;;;;5011778;28;20051;-77
2022/05/09 02:36:56;;;;;;;8.90;2.70;;;;;;;;;;5004652;28;20060;-76
2022/05/09 02:39:22;;;;;;;17.15;3.42;;;;;;;;;;5013105;28;20074;-78
2022/05/09 02:41:49;;;;;;;12.30;3.50;;;;;;;;;;4997431;28;20058;-79
2022/05/09 02:44:15;;;;;;;14.40;3.72;;;;;;;;;;5017650;28;20436;-79
2022/05/09 02:46:42;;;;;;;10.25;3.15;;;;;;;;;;5024463;28;20054;-76
2022/05/09 02:49:09;;;;;;;12.02;2.83;;;;;;;;;;5018708;28;20525;-79
2022/05/09 02:51:35;;;;;;;9.60;3.10;;;;;;;;;;5002775;28;20050;-79
2022/05/09 02:54:02;;;;;;;14.43;3.30;;;;;;;;;;5012626;28;20054;-78
2022/05/09 02:56:28;;;;;;;13.18;3.33;;;;;;;;;;5025405;28;20051;-79
2022/05/09 02:58:55;;;;;;;11.27;3.47;;;;;;;;;;5009520;28;20087;-77
2022/05/09 03:01:21;;;;;;;10.80;3.22;;;;;;;;;;5016646;28;20129;-78
2022/05/09 03:06:33;;;;;;;9.48;3.17;;;;;;;;;;5013172;28;20114;-79
2022/05/09 03:08:59;;;;;;;10.38;3.10;;;;;;;;;;5014159;28;20137;-76
2022/05/09 03:11:25;;;;;;;17.30;3.60;;;;;;;;;;5005122;28;20518;-78
2022/05/09 03:13:52;;;;;;;10.80;3.13;;;;;;;;;;5006214;28;20906;-78
2022/05/09 03:16:19;;;;;;;12.07;3.40;;;;;;;;;;5000862;28;20141;-79
2022/05/09 03:18:47;;;;;;;11.52;3.53;;;;;;;;;;5004835;28;20054;-77
2022/05/09 03:21:13;;;;;;;10.85;3.13;;;;;;;;;;5007235;28;20138;-80
2022/05/09 03:23:40;;;;;;;10.82;3.40;;;;;;;;;;5018325;28;20169;-76
2022/05/09 03:26:06;;;;;;;16.52;3.45;;;;;;;;;;5010529;28;20064;-76
2022/05/09 03:28:32;;;;;;;11.18;3.33;;;;;;;;;;5015567;28;20050;-78
2022/05/09 03:31:00;;;;;;;9.88;3.20;;;;;;;;;;5015327;28;20061;-79
2022/05/09 03:33:29;;;;;;;13.73;3.72;;;;;;;;;;5006573;28;20054;-77
2022/05/09 03:35:57;;;;;;;14.90;3.63;;;;;;;;;;5014508;28;20058;-78
2022/05/09 03:38:24;;;;;;;10.40;3.00;;;;;;;;;;5009876;28;20499;-79
2022/05/09 03:40:50;;;;;;;12.15;3.70;;;;;;;;;;5016477;28;20420;-78
2022/05/09 03:43:16;;;;;;;11.55;3.35;;;;;;;;;;5001370;28;20069;-77
2022/05/09 03:45:45;;;;;;;9.10;3.28;;;;;;;;;;5014301;28;20062;-78
2022/05/09 03:48:11;;;;;;;11.50;3.33;;;;;;;;;;5038922;28;20086;-77
2022/05/09 03:50:38;;;;;;;15.98;3.47;;;;;;;;;;5000397;28;20058;-79
2022/05/09 03:53:04;;;;;;;13.80;3.30;;;;;;;;;;5015151;28;20152;-79
2022/05/09 03:55:33;;;;;;;12.10;3.70;;;;;;;;;;5022430;28;20528;-78
2022/05/09 03:57:59;;;;;;;9.18;3.03;;;;;;;;;;5001556;28;20062;-77
2022/05/09 04:00:27;;;;;;;11.25;3.47;;;;;;;;;;5010182;28;20839;-77
2022/05/09 04:02:54;;;;;;;18.90;3.75;;;;;;;;;;5027926;28;20078;-77
2022/05/09 04:05:21;;;;;;;13.48;4.20;;;;;;;;;;5017241;28;20065;-78
2022/05/09 04:07:49;;;;;;;8.73;3.53;;;;;;;;;;5008595;28;20064;-77
2022/05/09 04:10:16;;;;;;;15.20;3.67;;;;;;;;;;5007739;28;20170;-77
2022/05/09 04:12:43;;;;;;;16.50;3.67;;;;;;;;;;5001715;28;20050;-77
2022/05/09 04:17:54;;;;;;;15.63;3.80;;;;;;;;;;5003022;28;20069;-77
2022/05/09 04:20:22;;;;;;;14.90;3.90;;;;;;;;;;5011275;28;20085;-76
2022/05/09 04:22:49;;;;;;;16.63;4.07;;;;;;;;;;5010661;28;20062;-79
2022/05/09 04:25:15;;;;;;;10.50;4.10;;;;;;;;;;5023064;28;20054;-77
2022/05/09 04:27:42;;;;;;;11.02;3.88;;;;;;;;;;5004293;28;20531;-76
2022/05/09 04:30:09;;;;;;;18.08;4.03;;;;;;;;;;5004322;28;20097;-79
2022/05/09 04:32:35;;;;;;;11.68;3.97;;;;;;;;;;5003428;28;20134;-77
2022/05/09 04:35:01;;;;;;;16.75;3.42;;;;;;;;;;5011450;28;20144;-76
2022/05/09 04:37:28;;;;;;;11.73;4.13;;;;;;;;;;5011925;28;20079;-77
2022/05/09 04:39:55;;;;;;;11.20;3.80;;;;;;;;;;5004305;28;20059;-78
2022/05/09 04:42:21;;;;;;;12.90;3.90;;;;;;;;;;5012627;28;20113;-78
2022/05/09 04:44:47;;;;;;;10.20;3.63;;;;;;;;;;5011179;28;20110;-79
2022/05/09 04:47:14;;;;;;;13.48;3.30;;;;;;;;;;5005415;28;20056;-79
2022/05/09 04:49:40;;;;;;;13.50;4.28;;;;;;;;;;5003467;28;20146;-76
2022/05/09 04:52:07;;;;;;;14.68;3.72;;;;;;;;;;5006413;28;20133;-76
2022/05/09 04:54:33;;;;;;;11.57;3.80;;;;;;;;;;5023418;28;20050;-80
2022/05/09 04:56:59;;;;;;;14.98;3.63;;;;;;;;;;5009083;28;20062;-78
2022/05/09 04:59:26;;;;;;;14.15;3.92;;;;;;;;;;5012397;28;20061;-79
2022/05/09 05:01:52;;;;;;;9.63;3.67;;;;;;;;;;5026988;28;20145;-80
2022/05/09 05:04:18;;;;;;;18.55;4.45;;;;;;;;;;5012395;28;20065;-80
2022/05/09 05:06:45;;;;;;;13.68;4.18;;;;;;;;;;5015328;28;20054;-79
2022/05/09 05:09:11;;;;;;;10.77;4.07;;;;;;;;;;5005079;28;20165;-79
2022/05/09 05:11:37;;;;;;;9.98;3.55;;;;;;;;;;5005195;28;20056;-80
2022/05/09 05:14:06;;;;;;;15.70;4.30;;;;;;;;;;5007769;28;20058;-76
2022/05/09 05:19:17;;;;;;;12.00;4.40;;;;;;;;;;5007599;28;20132;-80
2022/05/09 05:21:44;;;;;;;16.50;4.10;;;;;;;;;;5023610;28;20055;-80
2022/05/09 05:24:17;;;;;;;13.00;4.18;;;;;;;;;;5005242;28;20538;-80
2022/05/09 05:26:44;;;;;;;14.70;4.13;;;;;;;;;;5006593;28;20076;-80
2022/05/09 05:29:10;;;;;;;13.30;4.45;;;;;;;;;;5009843;28;20057;-77
2022/05/09 05:31:40;;;;;;;17.33;4.82;;;;;;;;;;5003979;28;20496;-78
2022/05/09 05:34:08;;;;;;;16.45;4.50;;;;;;;;;;5003386;28;20062;-77
2022/05/09 05:36:34;;;;;;;22.20;5.00;;;;;;;;;;5000475;28;20666;-80
2022/05/09 05:39:03;;;;;;;16.35;4.80;;;;;;;;;;5004832;28;20042;-79
2022/05/09 05:41:31;;;;;;;19.33;4.57;;;;;;;;;;5004829;28;20057;-78
2022/05/09 05:43:57;;;;;;;17.25;4.68;;;;;;;;;;5008031;28;20054;-77
2022/05/09 05:46:24;;;;;;;14.82;4.78;;;;;;;;;;5002801;28;21012;-80
2022/05/09 05:48:50;;;;;;;14.27;4.00;;;;;;;;;;5005732;28;20089;-77
2022/05/09 05:51:18;;;;;;;10.07;4.20;;;;;;;;;;4999713;28;20449;-79
2022/05/09 05:53:45;;;;;;;13.18;4.50;;;;;;;;;;5004356;28;20050;-79
2022/05/09 05:56:12;;;;;;;18.88;4.32;;;;;;;;;;5003079;28;20058;-77
2022/05/09 05:58:38;;;;;;;12.32;4.38;;;;;;;;;;5003532;28;20064;-76
2022/05/09 06:01:04;;;;;;;16.30;4.53;;;;;;;;;;5005728;28;20121;-78
2022/05/09 06:03:31;;;;;;;11.88;3.97;;;;;;;;;;5014250;28;20058;-78
2022/05/09 06:05:57;;;;;;;10.48;3.85;;;;;;;;;;5012413;28;20130;-79
2022/05/09 06:08:24;;;;;;;9.05;3.97;;;;;;;;;;5006198;28;20054;-79
2022/05/09 06:10:50;;;;;;;15.50;4.00;;;;;;;;;;5004012;28;20061;-77
2022/05/09 06:13:16;;;;;;;18.05;4.15;;;;;;;;;;4999152;28;20054;-78
2022/05/09 06:15:43;;;;;;;16.55;4.25;;;;;;;;;;5008246;28;20133;-79
2022/05/09 06:18:12;;;;;;;12.93;4.53;;;;;;;;;;5008614;28;21017;-79
2022/05/09 06:20:40;;;;;;;11.82;3.55;;;;;;;;;;5005377;28;20046;-77
2022/05/09 06:23:08;;;;;;;16.98;4.72;;;;;;;;;;5007942;28;20281;-77
2022/05/09 06:25:35;;;;;;;10.48;3.90;;;;;;;;;;5007053;28;20141;-80
2022/05/09 06:28:03;;;;;;;14.25;4.50;;;;;;;;;;5006230;28;20882;-77
2022/05/09 06:30:29;;;;;;;11.82;3.80;;;;;;;;;;5004152;28;20150;-77
2022/05/09 06:32:55;;;;;;;12.70;4.15;;;;;;;;;;5004640;28;20065;-78
2022/05/09 06:35:24;;;;;;;9.00;3.70;;;;;;;;;;5005217;28;20137;-77
2022/05/09 06:37:55;;;;;;;12.30;4.60;;;;;;;;;;5004426;28;20054;-79
2022/05/09 06:40:22;;;;;;;15.25;4.18;;;;;;;;;;5006706;28;20065;-79
2022/05/09 06:42:51;;;;;;;11.30;3.75;;;;;;;;;;5004736;28;20054;-77
2022/05/09 06:45:17;;;;;;;12.02;4.85;;;;;;;;;;5005277;28;20047;-78
2022/05/09 06:47:47;;;;;;;12.18;4.00;;;;;;;;;;5004008;28;20498;-79
2022/05/09 06:50:13;;;;;;;13.75;4.43;;;;;;;;;;4987897;28;20058;-77
2022/05/09 06:52:41;;;;;;;9.93;3.72;;;;;;;;;;4995606;28;20133;-78
2022/05/09 06:55:28;;;;;;;10.43;3.92;;;;;;;;;;5004730;28;20055;-79
2022/05/09 06:57:54;;;;;;;11.40;4.57;;;;;;;;;;5004281;28;20058;-79
2022/05/09 07:00:24;;;;;;;13.48;3.75;;;;;;;;;;5004515;28;20057;-78
2022/05/09 07:02:51;;;;;;;19.92;4.43;;;;;;;;;;5002645;28;20090;-79
2022/05/09 07:05:19;;;;;;;14.23;4.10;;;;;;;;;;5005241;28;20062;-76
2022/05/09 07:07:46;;;;;;;12.73;4.15;;;;;;;;;;5004100;28;20081;-76
2022/05/09 07:10:13;;;;;;;11.35;4.43;;;;;;;;;;4996699;28;20089;-78
2022/05/09 07:12:42;;;;;;;12.40;4.22;;;;;;;;;;5004755;28;20059;-76
2022/05/09 07:15:09;;;;;;;11.13;4.13;;;;;;;;;;5004255;28;20066;-78
2022/05/09 07:17:35;;;;;;;15.18;4.00;;;;;;;;;;5001449;28;20901;-78
2022/05/09 07:20:03;;;;;;;11.23;4.05;;;;;;;;;;5005231;28;20138;-76
2022/05/09 07:22:30;;;;;;;11.18;4.60;;;;;;;;;;5004432;28;20691;-78
2022/05/09 07:24:56;;;;;;;20.75;4.32;;;;;;;;;;5006818;28;20082;-76
2022/05/09 07:27:23;;;;;;;12.40;4.38;;;;;;;;;;4990921;28;20145;-78
2022/05/09 07:29:49;;;;;;;9.07;4.18;;;;;;;;;;5007226;28;20053;-76
2022/05/09 07:32:15;;;;;;;14.65;3.78;;;;;;;;;;5004742;28;20070;-75
2022/05/09 07:34:43;;;;;;;14.98;3.97;;;;;;;;;;5022451;28;20062;-75
2022/05/09 07:37:09;;;;;;;11.20;3.80;;;;;;;;;;5008107;28;20053;-75
2022/05/09 07:39:35;;;;;;;12.73;4.20;;;;;;;;;;5007143;28;20688;-75
2022/05/09 07:42:02;;;;;;;14.90;4.60;;;;;;;;;;5005432;28;20081;-74
2022/05/09 07:44:28;;;;;;;11.50;3.90;;;;;;;;;;5011818;28;20513;-76
2022/05/09 07:46:55;;;;;;;14.90;4.30;;;;;;;;;;5005714;28;20137;-77
2022/05/09 07:49:21;;;;;;;11.07;3.67;;;;;;;;;;5006736;28;20081;-77
2022/05/09 07:51:47;;;;;;;14.32;4.32;;;;;;;;;;5005599;28;20078;-77
2022/05/09 07:54:14;;;;;;;17.40;4.68;;;;;;;;;;5018402;28;20065;-77
2022/05/09 07:56:43;;;;;;;15.80;3.70;;;;;;;;;;5007780;28;20058;-74
2022/05/09 07:59:09;;;;;;;11.98;3.63;;;;;;;;;;5005761;28;20094;-75
2022/05/09 08:01:36;;;;;;;11.82;3.65;;;;;;;;;;5006797;28;20059;-77
2022/05/09 08:04:04;;;;;;;11.18;3.88;;;;;;;;;;5005560;28;20067;-77
2022/05/09 08:06:30;;;;;;;10.45;3.70;;;;;;;;;;5004311;28;20066;-76
2022/05/09 08:08:57;;;;;;;11.25;3.83;;;;;;;;;;5003139;28;20062;-76
2022/05/09 08:11:25;;;;;;;12.43;3.75;;;;;;;;;;5008234;28;20058;-76
2022/05/09 08:13:51;;;;;;;11.18;3.35;;;;;;;;;;5013293;28;20062;-76
2022/05/09 08:16:19;;;;;;;15.30;3.67;;;;;;;;;;5006128;28;20707;-75
2022/05/09 08:18:45;;;;;;;12.80;3.63;;;;;;;;;;5007344;28;20086;-77
2022/05/09 08:21:13;;;;;;;10.40;3.33;;;;;;;;;;5008914;28;20073;-75
2022/05/09 08:23:44;;;;;;;12.65;4.22;;;;;;;;;;5004462;28;20081;-76
2022/05/09 08:26:11;;;;;;;11.00;3.83;;;;;;;;;;4999700;28;20057;-74
2022/05/09 08:28:39;;;;;;;10.55;3.35;;;;;;;;;;5000445;28;20054;-74
2022/05/09 08:31:06;;;;;;;12.13;3.80;;;;;;;;;;5003554;28;20426;-76
2022/05/09 08:33:32;;;;;;;10.13;3.85;;;;;;;;;;5001265;28;20154;-75
2022/05/09 08:36:02;;;;;;;10.07;3.92;;;;;;;;;;4997170;28;20532;-75
2022/05/09 08:38:28;;;;;;;11.57;3.63;;;;;;;;;;5009575;28;20124;-75
2022/05/09 08:41:08;;;;;;;10.40;3.42;;;;;;;;;;5010686;28;20971;-78
2022/05/09 08:43:45;;;;;;;14.93;4.30;;;;;;;;;;5015242;28;20066;-75
2022/05/09 08:46:30;;;;;;;11.48;3.45;;;;;;;;;;5020054;28;20058;-75
2022/05/09 08:49:14;;;;;;;10.18;3.10;;;;;;;;;;5014924;28;20104;-77
2022/05/09 08:51:59;;;;;;;9.65;3.50;;;;;;;;;;5041421;28;20072;-74
2022/05/09 08:54:26;;;;;;;12.85;3.50;;;;;;;;;;5025643;28;20082;-75
2022/05/09 08:56:56;;;;;;;12.32;3.65;;;;;;;;;;5009708;28;20100;-78
2022/05/09 08:59:26;;;;;;;11.57;3.83;;;;;;;;;;5017668;28;20061;-77
2022/05/09 09:02:03;;;;;;;11.52;3.25;;;;;;;;;;5019064;28;20105;-75
2022/05/09 09:04:32;;;;;;;10.40;3.08;;;;;;;;;;5008036;28;20062;-77
2022/05/09 09:07:12;;;;;;;10.60;2.90;;;;;;;;;;5009817;28;20050;-77
2022/05/09 09:09:38;;;;;;;11.63;2.88;;;;;;;;;;5005613;28;20097;-76
2022/05/09 09:12:25;;;;;;;10.10;2.95;;;;;;;;;;5003521;28;20066;-76
2022/05/09 09:15:06;;;;;;;9.65;3.10;;;;;;;;;;5001674;28;20058;-76
2022/05/09 09:17:47;;;;;;;9.75;2.90;;;;;;;;;;5014641;28;20062;-77
2022/05/09 09:20:23;;;;;;;7.40;2.55;;;;;;;;;;5008056;28;20054;-77
2022/05/09 09:22:53;;;;;;;10.27;3.13;;;;;;;;;;5010784;28;20053;-75
2022/05/09 09:25:38;;;;;;;7.75;2.40;;;;;;;;;;5022419;28;20157;-76
2022/05/09 09:28:16;;;;;;;7.32;2.13;;;;;;;;;;5015854;28;20101;-76
2022/05/09 09:30:43;;;;;;;7.95;2.53;;;;;;;;;;5003333;28;20120;-76
2022/05/09 09:33:12;;;;;;;14.65;2.90;;;;;;;;;;5008141;28;20141;-75
2022/05/09 09:35:50;;;;;;;12.55;2.72;;;;;;;;;;5015838;28;20058;-76
2022/05/09 09:38:29;;;;;;;7.45;2.60;;;;;;;;;;4997981;28;20069;-76
2022/05/09 09:40:56;;;;;;;9.90;3.20;;;;;;;;;;5014137;28;20054;-76
2022/05/09 09:43:22;;;;;;;9.93;3.25;;;;;;;;;;4986303;28;20055;-76
2022/05/09 09:46:01;;;;;;;9.45;3.33;;;;;;;;;;5015383;28;20141;-77
2022/05/09 09:48:30;;;;;;;10.15;3.30;;;;;;;;;;5008449;28;20058;-76
2022/05/09 09:51:10;;;;;;;9.02;3.00;;;;;;;;;;5004255;28;20194;-77
2022/05/09 09:53:40;;;;;;;9.55;3.30;;;;;;;;;;5006628;28;20137;-77
2022/05/09 09:56:11;;;;;;;10.73;3.30;;;;;;;;;;5002087;28;20058;-77
2022/05/09 09:58:38;;;;;;;10.40;2.90;;;;;;;;;;5002651;28;20050;-78
2022/05/09 10:01:10;;;;;;;9.70;3.03;;;;;;;;;;5020034;28;20140;-78
2022/05/09 10:03:39;;;;;;;9.23;3.17;;;;;;;;;;5004002;28;20137;-78
2022/05/09 10:06:16;;;;;;;10.98;3.22;;;;;;;;;;5011181;28;20074;-75
2022/05/09 10:08:43;;;;;;;9.65;2.78;;;;;;;;;;4999989;28;20061;-76
2022/05/09 10:11:13;;;;;;;8.65;2.95;;;;;;;;;;5000624;28;20505;-77
2022/05/09 10:13:47;;;;;;;12.90;3.45;;;;;;;;;;5001327;28;20046;-77
2022/05/09 10:16:30;;;;;;;14.95;3.55;;;;;;;;;;5002004;28;20077;-78
2022/05/09 10:18:59;;;;;;;11.85;3.40;;;;;;;;;;5010021;28;20054;-76
2022/05/09 10:27:08;;;;;;;8.25;3.10;;;;;;;;;;5009355;28;20054;-77
2022/05/09 10:29:38;;;;;;;8.55;3.25;;;;;;;;;;5000231;28;20141;-77
2022/05/09 10:32:06;;;;;;;12.48;3.42;;;;;;;;;;5000749;28;20054;-77
2022/05/09 10:34:40;;;;;;;9.50;3.42;;;;;;;;;;4999446;28;20528;-77
2022/05/09 10:37:20;;;;;;;11.65;3.38;;;;;;;;;;5000049;28;21212;-76
2022/05/09 10:39:51;;;;;;;10.57;3.88;;;;;;;;;;5000590;28;20166;-77
2022/05/09 10:42:27;;;;;;;9.38;3.35;;;;;;;;;;5000181;28;20054;-77
2022/05/09 10:45:01;;;;;;;7.97;2.85;;;;;;;;;;5005765;28;20141;-77
2022/05/09 10:47:34;;;;;;;9.93;3.28;;;;;;;;;;4996374;28;20061;-77
2022/05/09 10:50:19;;;;;;;9.32;2.92;;;;;;;;;;4992474;28;20145;-77
2022/05/09 10:52:50;;;;;;;9.10;2.70;;;;;;;;;;4994949;28;20051;-77
2022/05/09 10:55:24;;;;;;;12.40;3.28;;;;;;;;;;4995875;28;20058;-77
2022/05/09 10:57:57;;;;;;;10.35;3.05;;;;;;;;;;5002100;28;20054;-76
2022/05/09 11:00:24;;;;;;;9.05;3.00;;;;;;;;;;4997838;28;20106;-77
2022/05/09 11:02:56;;;;;;;10.20;2.80;;;;;;;;;;5001209;28;20061;-77
2022/05/09 11:05:24;;;;;;;8.18;3.17;;;;;;;;;;5002812;28;20635;-77
2022/05/09 11:08:02;;;;;;;9.02;3.17;;;;;;;;;;5001258;28;20058;-77
2022/05/09 11:10:43;;;;;;;10.50;3.28;;;;;;;;;;5002919;28;20081;-77
2022/05/09 11:13:14;;;;;;;8.55;2.70;;;;;;;;;;5005098;28;20141;-77
2022/05/09 11:15:47;;;;;;;8.50;2.53;;;;;;;;;;5004201;28;20062;-77
2022/05/09 11:18:16;;;;;;;6.30;2.33;;;;;;;;;;5005158;28;20492;-77
2022/05/09 11:20:51;;;;;;;7.97;2.60;;;;;;;;;;5019003;28;20055;-77
2022/05/09 11:23:32;;;;;;;7.75;2.50;;;;;;;;;;5005617;28;20149;-77
2022/05/09 11:26:04;;;;;;;7.63;2.50;;;;;;;;;;5004771;28;20117;-77
2022/05/09 11:28:57;;;;;;;9.32;2.55;;;;;;;;;;5004260;28;20050;-77
2022/05/09 11:31:48;;;;;;;9.52;2.78;;;;;;;;;;5000364;28;20150;-77
2022/05/09 11:34:33;;;;;;;8.80;2.88;;;;;;;;;;4994889;28;20137;-77
2022/05/09 11:37:19;;;;;;;7.57;2.50;;;;;;;;;;5003939;28;20078;-77
2022/05/09 11:39:46;;;;;;;5.93;2.22;;;;;;;;;;5000110;28;20055;-76
2022/05/09 11:45:29;;;;;;;6.60;2.47;;;;;;;;;;5005930;28;20145;-76
2022/05/09 11:48:12;;;;;;;12.90;2.92;;;;;;;;;;4985597;28;20506;-76
2022/05/09 11:50:42;;;;;;;6.72;2.30;;;;;;;;;;5000390;28;20420;-77
2022/05/09 11:53:09;;;;;;;7.47;2.90;;;;;;;;;;5002532;28;20061;-76
2022/05/09 11:55:36;;;;;;;7.00;2.25;;;;;;;;;;5006353;28;20066;-76
2022/05/09 11:58:03;;;;;;;8.20;2.47;;;;;;;;;;5001281;28;20436;-77
2022/05/09 12:00:33;;;;;;;8.65;2.30;;;;;;;;;;5005564;28;20141;-77
2022/05/09 12:03:06;;;;;;;7.43;2.15;;;;;;;;;;5002492;28;20054;-77
2022/05/09 12:05:33;;;;;;;6.10;1.92;;;;;;;;;;5003633;28;20054;-77
2022/05/09 12:08:02;;;;;;;7.90;2.47;;;;;;;;;;5003613;28;20133;-77
2022/05/09 12:10:30;;;;;;;7.22;2.38;;;;;;;;;;5004561;28;20058;-77
2022/05/09 12:13:00;;;;;;;7.85;2.85;;;;;;;;;;5003927;28;20137;-77
2022/05/09 12:15:33;;;;;;;8.98;2.90;;;;;;;;;;5003820;28;20517;-77
2022/05/09 12:18:05;;;;;;;6.93;2.83;;;;;;;;;;5003737;28;20508;-77
2022/05/09 12:20:38;;;;;;;7.57;2.80;;;;;;;;;;5017645;28;20085;-77
2022/05/09 12:23:05;;;;;;;8.13;3.35;;;;;;;;;;5016892;28;20140;-77
2022/05/09 12:25:41;;;;;;;8.70;3.08;;;;;;;;;;5003394;28;20066;-77
2022/05/09 12:28:11;;;;;;;8.50;2.80;;;;;;;;;;5016852;28;20078;-77
2022/05/09 12:30:43;;;;;;;8.88;3.10;;;;;;;;;;4994965;28;20116;-77
2022/05/09 12:33:14;;;;;;;7.50;2.75;;;;;;;;;;5003209;28;20054;-77
2022/05/09 12:35:41;;;;;;;8.23;2.90;;;;;;;;;;5003931;28;20059;-77
2022/05/09 12:38:12;;;;;;;7.72;2.95;;;;;;;;;;4999018;28;20058;-77
2022/05/09 12:40:38;;;;;;;7.90;3.50;;;;;;;;;;4999970;28;20089;-77
2022/05/09 12:43:07;;;;;;;7.25;3.20;;;;;;;;;;5004856;28;20145;-77
2022/05/09 12:45:34;;;;;;;8.30;3.38;;;;;;;;;;5002617;28;20060;-77
2022/05/09 12:48:00;;;;;;;8.50;3.47;;;;;;;;;;5000757;28;20097;-77
2022/05/09 12:50:39;;;;;;;10.68;3.50;;;;;;;;;;5008074;28;20062;-77
2022/05/09 12:53:10;;;;;;;11.85;3.75;;;;;;;;;;5019831;28;20531;-76
2022/05/09 12:55:56;;;;;;;8.25;3.70;;;;;;;;;;5000479;28;20667;-76
2022/05/09 12:58:32;;;;;;;10.20;3.33;;;;;;;;;;5000889;28;20062;-76
2022/05/09 13:01:02;;;;;;;10.30;3.38;;;;;;;;;;5001142;28;20145;-76
2022/05/09 13:03:52;;;;;;;9.52;3.33;;;;;;;;;;5001605;28;20088;-77
2022/05/09 13:06:29;;;;;;;9.55;3.88;;;;;;;;;;5001165;28;20137;-77
2022/05/09 13:08:57;;;;;;;12.88;4.13;;;;;;;;;;4993707;28;20046;-76
2022/05/09 13:11:31;;;;;;;9.35;3.65;;;;;;;;;;5000495;28;20085;-75
2022/05/09 13:14:05;;;;;;;12.57;3.90;;;;;;;;;;5007537;28;20058;-76
2022/05/09 13:16:34;;;;;;;12.40;4.25;;;;;;;;;;4991316;28;20050;-76
2022/05/09 13:19:00;;;;;;;8.43;3.80;;;;;;;;;;5000597;28;20306;-77
2022/05/09 13:21:30;;;;;;;13.85;4.88;;;;;;;;;;4991181;28;20047;-77
2022/05/09 13:23:57;;;;;;;8.75;4.07;;;;;;;;;;5004821;28;20050;-77
2022/05/09 13:26:25;;;;;;;10.15;3.67;;;;;;;;;;5015194;28;20050;-77
2022/05/09 13:28:57;;;;;;;10.05;4.03;;;;;;;;;;4998270;28;20912;-77
2022/05/09 13:31:28;;;;;;;10.00;3.65;;;;;;;;;;4991374;28;20086;-77
2022/05/09 13:33:54;;;;;;;10.27;3.70;;;;;;;;;;4990374;28;20070;-77
2022/05/09 13:36:25;;;;;;;7.78;3.90;;;;;;;;;;5001519;28;20889;-76
2022/05/09 13:38:52;;;;;;;8.10;3.90;;;;;;;;;;5005566;28;20066;-77
2022/05/09 13:41:24;;;;;;;11.32;4.25;;;;;;;;;;4988616;28;20054;-78
2022/05/09 13:43:54;;;;;;;12.00;3.28;;;;;;;;;;4980463;28;20105;-77
2022/05/09 13:46:27;;;;;;;8.75;3.15;;;;;;;;;;4992449;28;20101;-78
2022/05/09 13:48:55;;;;;;;10.32;2.90;;;;;;;;;;4991570;28;20963;-78
2022/05/09 13:51:28;;;;;;;11.35;3.97;;;;;;;;;;5000381;28;20153;-78
2022/05/09 13:53:56;;;;;;;10.52;3.92;;;;;;;;;;4999336;28;20090;-78
2022/05/09 13:56:24;;;;;;;8.95;3.63;;;;;;;;;;5018777;28;20053;-78
2022/05/09 13:59:13;;;;;;;11.15;4.35;;;;;;;;;;5006620;28;20060;-78
2022/05/09 14:01:41;;;;;;;11.90;3.53;;;;;;;;;;5009643;28;20078;-76
2022/05/09 14:04:09;;;;;;;8.80;3.50;;;;;;;;;;5000115;28;20532;-77
2022/05/09 14:06:36;;;;;;;10.32;3.70;;;;;;;;;;5000527;28;20080;-77
2022/05/09 14:09:06;;;;;;;9.23;3.40;;;;;;;;;;4999952;28;20050;-77
2022/05/09 14:11:37;;;;;;;9.02;3.10;;;;;;;;;;4996192;28;20523;-77
2022/05/09 14:14:05;;;;;;;10.35;4.20;;;;;;;;;;4999099;28;20525;-77
2022/05/09 14:16:41;;;;;;;12.55;4.65;;;;;;;;;;5003059;28;20050;-77
2022/05/09 14:19:08;;;;;;;9.63;4.32;;;;;;;;;;5000992;28;20061;-77
2022/05/09 14:21:41;;;;;;;11.13;4.50;;;;;;;;;;5013965;28;20067;-77
2022/05/09 14:24:09;;;;;;;8.35;3.55;;;;;;;;;;5002734;28;20062;-77
2022/05/09 14:32:11;;;;;;;7.43;3.50;;;;;;;;;;5001281;28;21037;-77
2022/05/09 14:34:50;;;;;;;8.02;3.67;;;;;;;;;;5002257;28;20056;-77
2022/05/09 14:37:28;;;;;;;8.68;3.97;;;;;;;;;;5000731;28;20137;-77
2022/05/09 14:40:15;;;;;;;9.57;4.75;;;;;;;;;;5000635;28;20133;-77
2022/05/09 14:42:48;;;;;;;11.25;4.32;;;;;;;;;;4995800;28;20142;-77
2022/05/09 14:45:17;;;;;;;9.52;4.22;;;;;;;;;;5004671;28;20478;-77
2022/05/09 14:47:51;;;;;;;7.60;3.70;;;;;;;;;;4998262;28;20141;-77
2022/05/09 14:50:30;;;;;;;8.40;3.85;;;;;;;;;;5003702;28;20520;-77
2022/05/09 14:53:00;;;;;;;6.73;3.13;;;;;;;;;;5012331;28;20126;-77
2022/05/09 14:58:16;;;;;;;10.65;4.90;;;;;;;;;;5002509;28;20050;-77
2022/05/09 15:00:48;;;;;;;8.18;4.63;;;;;;;;;;5005333;28;20158;-78
2022/05/09 15:03:22;;;;;;;9.13;4.75;;;;;;;;;;5002906;28;20058;-77
2022/05/09 15:05:49;;;;;;;11.15;4.30;;;;;;;;;;5000584;28;20054;-77
2022/05/09 15:08:16;;;;;;;13.32;5.65;;;;;;;;;;5011182;28;20061;-77
2022/05/09 15:10:43;;;;;;;8.85;4.68;;;;;;;;;;5003931;28;20509;-77
2022/05/09 15:13:14;;;;;;;8.93;4.68;;;;;;;;;;5017822;28;20499;-77
2022/05/09 15:15:45;;;;;;;8.85;5.00;;;;;;;;;;4998285;28;20050;-78